Rachel Carson — WDF9370 — position and weather

sailwx.info

Track history (hours):
 
Tides and Currents Weather Stations Pressure Air Temp Water Temp Dewpoint Dewpoint Depression Visibility Wind Speed Wind Dir Waves Ship Positions

Oceanographic research ship Rachel Carson (USA)

Owner: Monterey Bay Aquarium Research Institute, Moss Landing, CA. More information available from US FCC via Universal Licensing System and Coast Guard Vessel Documentation Center.

Last reported at 2019-Mar-19 08:00 UTC. Time now 2019-Apr-19 10:51 UTC.
Position N 35°45' W 121°53'.
Warning: this ship's position is 31 days out of date.

Length 42 m; draft 3 m.

Type: Cargo ship. MMSI: 338415000.

Date/timePositionNaut miles runAvg speedWind from/ knotsBaromVisibWave heightAir tempDewpointWater temp
2019-Mar-19 08:00N 35°45' W 121°53'2 4.2
2019-Mar-19 07:30N 35°47' W 121°53'0 0.2
2019-Mar-19 06:59N 35°47' W 121°53'0 0.4
2019-Mar-19 06:08N 35°46' W 121°53'1 3.9
2019-Mar-19 05:50N 35°46' W 121°51'1 3.9
2019-Mar-19 05:30N 35°45' W 121°50'0 0.3
2019-Mar-19 05:00N 35°45' W 121°50'2 3.8
2019-Mar-19 04:24N 35°46' W 121°52'1 1.2
2019-Mar-19 03:36N 35°47' W 121°53'0 4.0
2019-Mar-19 03:30N 35°47' W 121°53'2 3.7
2019-Mar-19 03:00N 35°46' W 121°51'2 3.5
2019-Mar-19 02:29N 35°45' W 121°49'34 0.8
2019-Mar-17 07:29N 35°16' W 121°28'5 9.8
2019-Mar-17 07:00N 35°12' W 121°26'6 9.5
2019-Mar-17 06:19N 35°06' W 121°24'3 9.8
2019-Mar-17 06:00N 35°03' W 121°24'4 9.0
2019-Mar-17 05:31N 34°58' W 121°23'0 0.7
2019-Mar-17 04:55N 34°58' W 121°23'1 1.6
2019-Mar-17 04:25N 34°57' W 121°23'2 5.3
2019-Mar-17 04:00N 34°55' W 121°23'1 2.8
2019-Mar-17 03:30N 34°56' W 121°24'5 4.4
2019-Mar-17 02:21N 34°60' W 121°28'2 4.4
2019-Mar-17 02:00N 35°01' W 121°29'1 1.6
2019-Mar-17 01:27N 35°01' W 121°28'2 3.6
2019-Mar-17 01:00N 35°01' W 121°30'0 0.8
2019-Mar-17 00:30N 35°01' W 121°29'2 3.7
2019-Mar-17 00:01N 35°00' W 121°27'2 3.5
2019-Mar-16 23:30N 34°59' W 121°26'4 3.6
2019-Mar-16 22:28N 34°56' W 121°23'2 3.6
2019-Mar-16 22:00N 34°57' W 121°24'2 4.9
2019-Mar-16 21:30N 34°59' W 121°26'2 3.9
2019-Mar-16 21:01N 35°00' W 121°28'0 0.8
2019-Mar-16 20:30N 34°60' W 121°28'0 0.7
2019-Mar-16 20:00N 35°00' W 121°29'2 3.3
2019-Mar-16 19:30N 35°01' W 121°30'2 3.3
2019-Mar-16 19:00N 35°02' W 121°32'0 0.2
2019-Mar-16 18:30N 35°02' W 121°32'2 3.1
2019-Mar-16 17:55N 35°01' W 121°30'7 3.2
2019-Mar-16 15:40N 34°57' W 121°23'1 4.1
2019-Mar-16 15:29N 34°58' W 121°24'2 4.1
2019-Mar-16 15:00N 34°59' W 121°25'2 4.1
2019-Mar-16 14:30N 35°00' W 121°27'2 4.1
2019-Mar-16 14:00N 35°02' W 121°29'3 3.1
2019-Mar-16 13:04N 34°60' W 121°27'0 3.9
2019-Mar-16 13:00N 34°59' W 121°26'1 2.8
2019-Mar-16 12:30N 35°00' W 121°28'2 4.1
2019-Mar-16 12:00N 35°01' W 121°30'1 2.5
2019-Mar-16 11:30N 35°02' W 121°31'2 3.0
2019-Mar-16 10:56N 35°01' W 121°30'2 5.3
2019-Mar-16 10:30N 34°60' W 121°27'6 5.5
2019-Mar-16 09:25N 34°58' W 121°20'0 0.1
2019-Mar-16 09:00N 34°58' W 121°20'4 7.9
2019-Mar-16 08:30N 34°59' W 121°25'4 6.6
2019-Mar-16 07:58N 35°01' W 121°29'1 1.8
2019-Mar-16 07:30N 34°60' W 121°29'0 0.2
2019-Mar-16 07:00N 34°60' W 121°29'0 0.1
2019-Mar-16 06:28N 34°60' W 121°29'0 0.5
2019-Mar-16 06:00N 35°00' W 121°29'  
Track history (hours):
 
Tides and Currents Weather Stations Pressure Air Temp Water Temp Dewpoint Dewpoint Depression Visibility Wind Speed Wind Dir Waves Ship Positions

Oceanographic research ship Rachel Carson (USA)

Owner: Monterey Bay Aquarium Research Institute, Moss Landing, CA. More information available from US FCC via Universal Licensing System and Coast Guard Vessel Documentation Center.

Last reported at 2019-Mar-19 08:00 UTC. Time now 2019-Apr-19 10:51 UTC.
Position N 35°45' W 121°53'.
Warning: this ship's position is 31 days out of date.

Length 42 m; draft 3 m.

Type: Cargo ship. MMSI: 338415000.

Date/timePositionNaut miles runAvg speedWind from/ knotsBaromVisibWave heightAir tempDewpointWater temp
2019-Mar-19 08:00N 35°45' W 121°53'2 4.2
2019-Mar-19 07:30N 35°47' W 121°53'0 0.2
2019-Mar-19 06:59N 35°47' W 121°53'0 0.4
2019-Mar-19 06:08N 35°46' W 121°53'1 3.9
2019-Mar-19 05:50N 35°46' W 121°51'1 3.9
2019-Mar-19 05:30N 35°45' W 121°50'0 0.3
2019-Mar-19 05:00N 35°45' W 121°50'2 3.8
2019-Mar-19 04:24N 35°46' W 121°52'1 1.2
2019-Mar-19 03:36N 35°47' W 121°53'0 4.0
2019-Mar-19 03:30N 35°47' W 121°53'2 3.7
2019-Mar-19 03:00N 35°46' W 121°51'2 3.5
2019-Mar-19 02:29N 35°45' W 121°49'34 0.8
2019-Mar-17 07:29N 35°16' W 121°28'5 9.8
2019-Mar-17 07:00N 35°12' W 121°26'6 9.5
2019-Mar-17 06:19N 35°06' W 121°24'3 9.8
2019-Mar-17 06:00N 35°03' W 121°24'4 9.0
2019-Mar-17 05:31N 34°58' W 121°23'0 0.7
2019-Mar-17 04:55N 34°58' W 121°23'1 1.6
2019-Mar-17 04:25N 34°57' W 121°23'2 5.3
2019-Mar-17 04:00N 34°55' W 121°23'1 2.8
2019-Mar-17 03:30N 34°56' W 121°24'5 4.4
2019-Mar-17 02:21N 34°60' W 121°28'2 4.4
2019-Mar-17 02:00N 35°01' W 121°29'1 1.6
2019-Mar-17 01:27N 35°01' W 121°28'2 3.6
2019-Mar-17 01:00N 35°01' W 121°30'0 0.8
2019-Mar-17 00:30N 35°01' W 121°29'2 3.7
2019-Mar-17 00:01N 35°00' W 121°27'2 3.5
2019-Mar-16 23:30N 34°59' W 121°26'4 3.6
2019-Mar-16 22:28N 34°56' W 121°23'2 3.6
2019-Mar-16 22:00N 34°57' W 121°24'2 4.9
2019-Mar-16 21:30N 34°59' W 121°26'2 3.9
2019-Mar-16 21:01N 35°00' W 121°28'0 0.8
2019-Mar-16 20:30N 34°60' W 121°28'0 0.7
2019-Mar-16 20:00N 35°00' W 121°29'2 3.3
2019-Mar-16 19:30N 35°01' W 121°30'2 3.3
2019-Mar-16 19:00N 35°02' W 121°32'0 0.2
2019-Mar-16 18:30N 35°02' W 121°32'2 3.1
2019-Mar-16 17:55N 35°01' W 121°30'7 3.2
2019-Mar-16 15:40N 34°57' W 121°23'1 4.1
2019-Mar-16 15:29N 34°58' W 121°24'2 4.1
2019-Mar-16 15:00N 34°59' W 121°25'2 4.1
2019-Mar-16 14:30N 35°00' W 121°27'2 4.1
2019-Mar-16 14:00N 35°02' W 121°29'3 3.1
2019-Mar-16 13:04N 34°60' W 121°27'0 3.9
2019-Mar-16 13:00N 34°59' W 121°26'1 2.8
2019-Mar-16 12:30N 35°00' W 121°28'2 4.1
2019-Mar-16 12:00N 35°01' W 121°30'1 2.5
2019-Mar-16 11:30N 35°02' W 121°31'2 3.0
2019-Mar-16 10:56N 35°01' W 121°30'2 5.3
2019-Mar-16 10:30N 34°60' W 121°27'6 5.5
2019-Mar-16 09:25N 34°58' W 121°20'0 0.1
2019-Mar-16 09:00N 34°58' W 121°20'4 7.9
2019-Mar-16 08:30N 34°59' W 121°25'4 6.6
2019-Mar-16 07:58N 35°01' W 121°29'1 1.8
2019-Mar-16 07:30N 34°60' W 121°29'0 0.2
2019-Mar-16 07:00N 34°60' W 121°29'0 0.1
2019-Mar-16 06:28N 34°60' W 121°29'0 0.5
2019-Mar-16 06:00N 35°00' W 121°29'  

Dump ship's entire track history